createdAt,value
2018-04-02T00:01:20.875Z,77.67
2018-04-02T00:03:48.565Z,77.72
2018-04-02T00:06:16.539Z,77.74
2018-04-02T00:08:44.133Z,77.69
2018-04-02T00:11:11.741Z,77.77
2018-04-02T00:13:39.731Z,77.83
2018-04-02T00:16:07.313Z,77.95
2018-04-02T00:18:34.911Z,78.08
2018-04-02T00:21:02.592Z,78.10
2018-04-02T00:23:30.587Z,78.17
2018-04-02T00:25:58.161Z,78.30
2018-04-02T00:28:25.767Z,78.38
2018-04-02T00:30:53.720Z,78.39
2018-04-02T00:33:21.372Z,78.42
2018-04-02T00:35:49.024Z,78.44
2018-04-02T00:38:16.640Z,78.56
2018-04-02T00:40:44.217Z,78.60
2018-04-02T00:43:11.843Z,78.48
2018-04-02T00:45:39.697Z,78.47
2018-04-02T00:48:07.360Z,78.53
2018-04-02T00:50:34.987Z,78.58
2018-04-02T00:53:02.560Z,78.53
2018-04-02T00:55:30.214Z,78.51
2018-04-02T00:57:57.820Z,78.43
2018-04-02T01:00:25.399Z,78.28
2018-04-02T01:02:53.404Z,78.16
2018-04-02T01:05:22.438Z,78.11
2018-04-02T01:07:50.499Z,78.12
2018-04-02T01:10:18.622Z,78.12
2018-04-02T01:12:46.822Z,78.14
2018-04-02T01:15:14.908Z,78.09
2018-04-02T01:17:42.522Z,78.09
2018-04-02T01:20:10.180Z,78.15
2018-04-02T01:22:37.788Z,78.09
2018-04-02T01:25:05.499Z,78.11
2018-04-02T01:27:33.090Z,78.21
2018-04-02T01:30:00.690Z,78.29
2018-04-02T01:32:28.627Z,78.27
2018-04-02T01:34:56.226Z,78.44
2018-04-02T01:37:23.810Z,78.75
2018-04-02T01:39:51.458Z,79.07
2018-04-02T01:42:19.086Z,79.31
2018-04-02T01:44:46.663Z,79.40
2018-04-02T01:47:14.635Z,79.42
2018-04-02T01:49:42.494Z,79.37
2018-04-02T01:52:10.474Z,79.41
2018-04-02T01:54:38.089Z,79.35
2018-04-02T01:57:05.666Z,79.29
2018-04-02T01:59:33.620Z,79.39
2018-04-02T02:02:01.226Z,79.45
2018-04-02T02:04:28.858Z,79.44
2018-04-02T02:06:56.516Z,79.41
2018-04-02T02:09:24.415Z,79.38
2018-04-02T02:11:52.080Z,79.31
2018-04-02T02:14:19.960Z,79.10
2018-04-02T02:16:47.550Z,78.99
2018-04-02T02:19:15.208Z,78.96
2018-04-02T02:21:42.870Z,78.84
2018-04-02T02:24:10.463Z,78.84
2018-04-02T02:26:38.139Z,78.83
2018-04-02T02:29:05.732Z,78.88
2018-04-02T02:31:33.686Z,78.93
2018-04-02T02:34:01.367Z,79.00
2018-04-02T02:36:29.210Z,79.06
2018-04-02T02:38:56.907Z,79.06
2018-04-02T02:41:24.552Z,79.03
2018-04-02T02:43:52.151Z,79.05
2018-04-02T02:46:19.734Z,79.07
2018-04-02T02:48:47.371Z,79.09
2018-04-02T02:51:14.961Z,79.11
2018-04-02T02:53:42.625Z,79.24
2018-04-02T02:56:10.304Z,79.35
2018-04-02T02:58:37.905Z,79.32
2018-04-02T03:01:05.489Z,79.24
2018-04-02T03:03:33.137Z,79.17
2018-04-02T03:06:00.732Z,79.12
2018-04-02T03:08:28.312Z,79.18
2018-04-02T03:10:56.203Z,79.34
2018-04-02T03:13:23.808Z,79.23
2018-04-02T03:15:51.396Z,79.22
2018-04-02T03:18:19.086Z,79.33
2018-04-02T03:20:46.737Z,79.37
2018-04-02T03:23:14.377Z,79.31
2018-04-02T03:25:42.098Z,79.28
2018-04-02T03:28:09.716Z,79.30
2018-04-02T03:30:37.466Z,79.39
2018-04-02T03:33:05.335Z,79.55
2018-04-02T03:35:32.936Z,79.70
2018-04-02T03:38:00.643Z,79.81
2018-04-02T03:40:28.253Z,79.91
2018-04-02T03:42:55.896Z,79.97
2018-04-02T03:45:23.551Z,80.01
2018-04-02T03:47:51.206Z,80.18
2018-04-02T03:50:18.867Z,80.17
2018-04-02T03:52:46.608Z,80.22
2018-04-02T03:55:14.214Z,80.27
2018-04-02T03:57:42.032Z,80.33
2018-04-02T04:00:09.695Z,80.33
2018-04-02T04:02:37.295Z,80.32
2018-04-02T04:05:04.952Z,80.42
2018-04-02T04:07:32.575Z,80.51
2018-04-02T04:10:00.241Z,80.47
2018-04-02T04:12:27.840Z,80.52
2018-04-02T04:14:55.699Z,80.59
2018-04-02T04:17:23.326Z,80.63
2018-04-02T04:19:50.962Z,80.64
2018-04-02T04:22:18.674Z,80.64
2018-04-02T04:24:46.266Z,80.68
2018-04-02T04:27:13.895Z,80.73
2018-04-02T04:29:41.626Z,80.82
2018-04-02T04:32:09.276Z,80.91
2018-04-02T04:34:36.989Z,80.98
2018-04-02T04:37:04.730Z,81.03
2018-04-02T04:39:32.339Z,81.09
2018-04-02T04:41:59.936Z,81.22
2018-04-02T04:44:27.926Z,81.24
2018-04-02T04:46:55.590Z,81.27
2018-04-02T04:49:23.168Z,81.33
2018-04-02T04:51:50.810Z,81.44
2018-04-02T04:54:18.560Z,81.60
2018-04-02T04:56:46.153Z,81.81
2018-04-02T04:59:13.854Z,82.04
2018-04-02T05:01:41.480Z,82.25
2018-04-02T05:04:09.090Z,82.37
2018-04-02T05:06:36.770Z,82.47
2018-04-02T05:09:04.449Z,82.60
2018-04-02T05:11:32.045Z,82.70
2018-04-02T05:14:00.010Z,82.81
2018-04-02T05:16:27.665Z,82.85
2018-04-02T05:18:55.271Z,82.93
2018-04-02T05:21:22.981Z,83.05
2018-04-02T05:23:50.964Z,83.20
2018-04-02T05:26:18.563Z,83.31
2018-04-02T05:28:46.207Z,83.45
2018-04-02T05:31:13.878Z,83.58
2018-04-02T05:33:41.578Z,83.80
2018-04-02T05:36:09.180Z,83.95
2018-04-02T05:38:37.199Z,84.07
2018-04-02T05:41:04.874Z,84.22
2018-04-02T05:43:32.481Z,84.36
2018-04-02T05:46:00.100Z,84.52
2018-04-02T05:48:28.133Z,84.68
2018-04-02T05:50:55.947Z,84.81
2018-04-02T05:53:23.606Z,84.91
2018-04-02T05:55:51.532Z,85.01
2018-04-02T05:58:19.131Z,85.20
2018-04-02T06:00:46.744Z,85.44
2018-04-02T06:03:14.367Z,85.62
2018-04-02T06:05:42.325Z,85.77
2018-04-02T06:08:09.939Z,85.85
2018-04-02T06:10:37.669Z,85.88
2018-04-02T06:13:05.586Z,85.92
2018-04-02T06:15:33.186Z,85.91
2018-04-02T06:18:00.804Z,85.91
2018-04-02T06:20:28.434Z,86.04
2018-04-02T06:22:56.041Z,86.10
2018-04-02T06:25:24.030Z,86.31
2018-04-02T06:27:51.643Z,86.17
2018-04-02T06:30:19.326Z,86.26
2018-04-02T06:32:47.078Z,86.28
2018-04-02T06:35:14.915Z,86.31
2018-04-02T06:37:42.815Z,86.58
2018-04-02T06:40:10.677Z,87.13
2018-04-02T06:42:38.352Z,87.15
2018-04-02T06:45:06.019Z,87.39
2018-04-02T06:47:33.707Z,87.56
2018-04-02T06:50:01.366Z,87.28
2018-04-02T06:52:28.956Z,86.93
2018-04-02T06:54:56.936Z,86.60
2018-04-02T06:57:24.519Z,86.28
2018-04-02T06:59:52.107Z,86.05
2018-04-02T07:02:19.857Z,85.86
2018-04-02T07:04:47.570Z,85.75
2018-04-02T07:07:15.158Z,85.38
2018-04-02T07:09:42.789Z,85.08
2018-04-02T07:12:10.435Z,84.68
2018-04-02T07:14:38.025Z,84.61
2018-04-02T07:17:05.638Z,84.39
2018-04-02T07:19:33.296Z,84.25
2018-04-02T07:22:00.897Z,84.08
2018-04-02T07:24:28.497Z,82.67
2018-04-02T07:26:56.114Z,82.15
2018-04-02T07:29:23.786Z,81.73
2018-04-02T07:31:51.392Z,81.17
2018-04-02T07:34:19.067Z,81.05
2018-04-02T07:36:46.668Z,80.83
2018-04-02T07:39:14.328Z,80.82
2018-04-02T07:41:42.011Z,80.09
2018-04-02T07:44:09.613Z,79.58
2018-04-02T07:46:37.262Z,79.66
2018-04-02T07:49:04.889Z,79.96
2018-04-02T07:51:32.568Z,79.60
2018-04-02T07:54:00.460Z,79.25
2018-04-02T07:56:28.058Z,79.00
2018-04-02T07:58:55.648Z,78.99
2018-04-02T08:01:23.379Z,78.16
2018-04-02T08:03:50.970Z,78.26
2018-04-02T08:06:18.931Z,77.79
2018-04-02T08:08:46.579Z,77.34
2018-04-02T08:11:14.189Z,76.64
2018-04-02T08:13:42.024Z,76.09
2018-04-02T08:16:10.172Z,75.98
2018-04-02T08:18:37.906Z,75.82
2018-04-02T08:21:05.540Z,75.76
2018-04-02T08:23:33.276Z,75.99
2018-04-02T08:26:00.866Z,75.10
2018-04-02T08:28:28.890Z,74.62
2018-04-02T08:30:56.466Z,74.88
2018-04-02T08:33:24.111Z,74.81
2018-04-02T08:35:51.716Z,74.98
2018-04-02T08:38:19.747Z,75.36
2018-04-02T08:40:47.382Z,75.04
2018-04-02T08:43:15.006Z,75.37
2018-04-02T08:45:42.645Z,75.27
2018-04-02T08:48:10.457Z,74.56
2018-04-02T08:50:38.049Z,74.13
2018-04-02T08:53:05.724Z,74.18
2018-04-02T08:55:33.378Z,73.93
2018-04-02T08:58:01.291Z,74.32
2018-04-02T09:00:29.085Z,73.75
2018-04-02T09:02:56.980Z,73.27
2018-04-02T09:05:24.587Z,73.81
2018-04-02T09:07:52.193Z,72.68
2018-04-02T09:10:19.911Z,72.89
2018-04-02T09:12:47.616Z,73.02
2018-04-02T09:15:15.271Z,73.03
2018-04-02T09:17:43.296Z,72.11
2018-04-02T09:20:10.904Z,72.62
2018-04-02T09:22:38.609Z,72.05
2018-04-02T09:25:06.201Z,71.70
2018-04-02T09:27:34.102Z,71.59
2018-04-02T09:30:01.758Z,71.52
2018-04-02T09:32:29.393Z,71.90
2018-04-02T09:34:57.001Z,71.73
2018-04-02T09:37:24.640Z,71.28
2018-04-02T09:39:53.304Z,71.45
2018-04-02T09:42:21.012Z,71.42
2018-04-02T09:44:48.905Z,71.29
2018-04-02T09:47:16.501Z,71.62
2018-04-02T09:49:44.616Z,71.64
2018-04-02T09:52:12.217Z,71.36
2018-04-02T09:54:39.809Z,71.61
2018-04-02T09:57:07.606Z,70.33
2018-04-02T09:59:35.191Z,70.45
2018-04-02T10:02:08.489Z,70.81
2018-04-02T10:04:36.168Z,70.41
2018-04-02T10:07:04.066Z,70.66
2018-04-02T10:09:31.686Z,70.85
2018-04-02T10:11:59.732Z,70.58
2018-04-02T10:14:27.418Z,70.04
2018-04-02T10:16:55.030Z,70.35
2018-04-02T10:19:23.125Z,70.23
2018-04-02T10:21:51.430Z,70.37
2018-04-02T10:24:19.025Z,70.70
2018-04-02T10:26:46.664Z,70.53
2018-04-02T10:29:14.728Z,70.64
2018-04-02T10:31:42.418Z,70.80
2018-04-02T10:34:10.045Z,70.78
2018-04-02T10:36:37.740Z,71.31
2018-04-02T10:39:06.675Z,71.35
2018-04-02T10:41:34.261Z,70.99
2018-04-02T10:44:01.887Z,71.65
2018-04-02T10:46:29.570Z,72.14
2018-04-02T10:48:57.151Z,72.90
2018-04-02T10:51:24.844Z,72.09
2018-04-02T10:53:52.587Z,72.57
2018-04-02T10:56:20.672Z,73.17
2018-04-02T10:58:48.303Z,72.93
2018-04-02T11:01:15.875Z,73.69
2018-04-02T11:03:43.911Z,73.10
2018-04-02T11:06:11.526Z,73.64
2018-04-02T11:08:39.187Z,73.04
2018-04-02T11:11:06.855Z,73.33
2018-04-02T11:13:34.451Z,73.50
2018-04-02T11:16:02.139Z,74.17
2018-04-02T11:18:29.777Z,74.21
2018-04-02T11:20:57.405Z,74.20
2018-04-02T11:23:25.012Z,74.40
2018-04-02T11:25:52.730Z,74.46
2018-04-02T11:28:20.410Z,73.92
2018-04-02T11:30:48.245Z,73.57
2018-04-02T11:33:15.872Z,72.41
2018-04-02T11:35:43.857Z,71.92
2018-04-02T11:38:11.471Z,72.35
2018-04-02T11:40:39.161Z,72.34
2018-04-02T11:43:13.298Z,71.90
2018-04-02T11:45:41.193Z,70.48
2018-04-02T11:48:08.870Z,70.70
2018-04-02T11:50:36.496Z,71.13
2018-04-02T11:53:05.059Z,71.97
2018-04-02T11:55:32.673Z,70.53
2018-04-02T11:58:00.275Z,70.59
2018-04-02T12:00:28.268Z,70.28
2018-04-02T12:02:55.887Z,69.81
2018-04-02T12:05:23.553Z,70.68
2018-04-02T12:07:51.237Z,70.88
2018-04-02T12:10:18.836Z,70.33
2018-04-02T12:12:46.547Z,70.43
2018-04-02T12:15:14.226Z,69.87
2018-04-02T12:17:41.817Z,69.96
2018-04-02T12:20:09.441Z,69.40
2018-04-02T12:22:37.084Z,70.03
2018-04-02T12:25:04.803Z,69.38
2018-04-02T12:27:32.614Z,69.17
2018-04-02T12:30:00.289Z,69.18
2018-04-02T12:32:28.284Z,68.98
2018-04-02T12:34:56.256Z,69.80
2018-04-02T12:37:24.120Z,69.85
2018-04-02T12:39:51.711Z,69.25
2018-04-02T12:42:19.334Z,69.33
2018-04-02T12:44:46.933Z,68.96
2018-04-02T12:47:14.565Z,68.98
2018-04-02T12:49:42.268Z,69.72
2018-04-02T12:52:10.302Z,69.19
2018-04-02T12:54:37.907Z,69.00
2018-04-02T12:57:05.575Z,68.99
2018-04-02T12:59:33.233Z,68.91
2018-04-02T13:02:00.830Z,69.08
2018-04-02T13:04:28.487Z,69.25
2018-04-02T13:06:56.132Z,69.16
2018-04-02T13:09:24.118Z,68.85
2018-04-02T13:11:51.786Z,68.93
2018-04-02T13:14:19.397Z,69.00
2018-04-02T13:16:47.183Z,68.63
2018-04-02T13:19:15.219Z,69.23
2018-04-02T13:21:43.586Z,68.80
2018-04-02T13:24:11.323Z,68.71
2018-04-02T13:26:38.909Z,68.55
2018-04-02T13:29:06.548Z,68.53
2018-04-02T13:31:34.246Z,68.27
2018-04-02T13:34:01.879Z,69.00
2018-04-02T13:36:29.496Z,69.22
2018-04-02T13:38:57.165Z,69.06
2018-04-02T13:41:24.792Z,69.47
2018-04-02T13:43:52.810Z,69.78
2018-04-02T13:46:20.479Z,70.59
2018-04-02T13:48:48.063Z,70.77
2018-04-02T13:51:15.956Z,71.75
2018-04-02T13:53:43.680Z,71.50
2018-04-02T13:56:12.493Z,71.53
2018-04-02T13:58:40.213Z,71.49
2018-04-02T14:01:07.818Z,71.04
2018-04-02T14:03:35.574Z,70.73
2018-04-02T14:06:03.304Z,69.11
2018-04-02T14:08:30.916Z,70.33
2018-04-02T14:10:58.538Z,69.77
2018-04-02T14:13:26.243Z,70.26
2018-04-02T14:15:53.831Z,70.07
2018-04-02T14:18:21.502Z,70.24
2018-04-02T14:20:49.492Z,69.79
2018-04-02T14:23:17.087Z,67.96
2018-04-02T14:25:45.052Z,67.65
2018-04-02T14:28:12.763Z,68.24
2018-04-02T14:30:40.675Z,68.66
2018-04-02T14:33:08.276Z,68.42
2018-04-02T14:35:35.979Z,65.83
2018-04-02T14:38:03.584Z,66.60
2018-04-02T14:40:31.441Z,65.30
2018-04-02T14:42:59.406Z,66.82
2018-04-02T14:45:27.023Z,66.63
2018-04-02T14:47:54.933Z,65.96
2018-04-02T14:50:22.886Z,66.58
2018-04-02T14:52:50.487Z,67.18
2018-04-02T14:55:18.143Z,67.71
2018-04-02T14:57:52.926Z,68.24
2018-04-02T15:00:20.820Z,69.07
2018-04-02T15:02:48.423Z,68.99
2018-04-02T15:05:16.460Z,68.49
2018-04-02T15:07:44.097Z,68.62
2018-04-02T15:10:11.695Z,67.22
2018-04-02T15:12:39.358Z,67.43
2018-04-02T15:15:06.999Z,67.24
2018-04-02T15:17:34.690Z,67.08
2018-04-02T15:20:02.310Z,67.83
2018-04-02T15:22:30.002Z,68.08
2018-04-02T15:24:57.678Z,67.77
2018-04-02T15:27:25.790Z,67.61
2018-04-02T15:29:53.401Z,68.00
2018-04-02T15:32:21.072Z,67.92
2018-04-02T15:34:48.754Z,68.85
2018-04-02T15:37:16.337Z,69.13
2018-04-02T15:39:44.002Z,69.58
2018-04-02T15:42:11.664Z,69.95
2018-04-02T15:44:39.332Z,70.59
2018-04-02T15:47:06.994Z,70.42
2018-04-02T15:49:34.570Z,69.68
2018-04-02T15:52:02.169Z,70.43
2018-04-02T15:54:29.806Z,70.85
2018-04-02T15:56:57.477Z,70.97
2018-04-02T15:59:25.088Z,70.71
2018-04-02T16:01:52.786Z,70.40
2018-04-02T16:04:20.445Z,71.05
2018-04-02T16:06:48.050Z,70.65
2018-04-02T16:09:15.838Z,70.38
2018-04-02T16:11:43.457Z,70.87
2018-04-02T16:14:11.053Z,70.32
2018-04-02T16:16:38.702Z,70.29
2018-04-02T16:19:06.367Z,70.35
2018-04-02T16:21:33.964Z,71.00
2018-04-02T16:24:01.676Z,69.32
2018-04-02T16:26:29.338Z,69.01
2018-04-02T16:28:56.983Z,68.55
2018-04-02T16:31:24.580Z,68.28
2018-04-02T16:33:52.415Z,67.90
2018-04-02T16:36:20.071Z,68.49
2018-04-02T16:38:47.742Z,68.73
2018-04-02T16:41:15.342Z,68.98
2018-04-02T16:43:43.004Z,68.98
2018-04-02T16:46:10.600Z,69.14
2018-04-02T16:48:38.659Z,69.53
2018-04-02T16:51:06.249Z,69.76
2018-04-02T16:53:33.922Z,70.21
2018-04-02T16:56:01.543Z,70.38
2018-04-02T16:58:29.148Z,70.26
2018-04-02T17:00:57.170Z,69.66
2018-04-02T17:03:24.880Z,69.52
2018-04-02T17:05:52.476Z,69.41
2018-04-02T17:08:20.124Z,68.96
2018-04-02T17:10:47.708Z,69.20
2018-04-02T17:13:15.289Z,69.29
2018-04-02T17:15:42.972Z,69.38
2018-04-02T17:18:10.644Z,69.06
2018-04-02T17:20:38.237Z,68.98
2018-04-02T17:23:05.874Z,68.48
2018-04-02T17:25:33.565Z,68.47
2018-04-02T17:28:01.401Z,68.65
2018-04-02T17:30:29.251Z,68.80
2018-04-02T17:32:56.831Z,68.80
2018-04-02T17:35:24.472Z,68.39
2018-04-02T17:37:52.053Z,67.90
2018-04-02T17:40:19.706Z,68.12
2018-04-02T17:42:47.740Z,68.14
2018-04-02T17:45:15.322Z,68.30
2018-04-02T17:47:43.138Z,68.13
2018-04-02T17:50:10.778Z,68.22
2018-04-02T17:52:38.450Z,68.28
2018-04-02T17:55:06.359Z,68.32
2018-04-02T17:57:34.090Z,68.38
2018-04-02T18:00:01.695Z,68.27
2018-04-02T18:02:29.282Z,68.14
2018-04-02T18:04:56.923Z,68.31
2018-04-02T18:07:24.908Z,68.00
2018-04-02T18:09:52.536Z,68.05
2018-04-02T18:12:20.158Z,68.08
2018-04-02T18:14:48.102Z,68.03
2018-04-02T18:17:16.141Z,68.04
2018-04-02T18:19:43.764Z,68.00
2018-04-02T18:22:11.473Z,67.91
2018-04-02T18:24:39.134Z,68.00
2018-04-02T18:27:06.831Z,67.89
2018-04-02T18:29:34.424Z,67.95
2018-04-02T18:32:02.457Z,68.03
2018-04-02T18:34:30.037Z,68.14
2018-04-02T18:36:57.638Z,68.42
2018-04-02T18:39:25.296Z,68.48
2018-04-02T18:41:53.235Z,68.54
2018-04-02T18:44:21.384Z,68.52
2018-04-02T18:46:49.349Z,68.61
2018-04-02T18:49:17.283Z,68.78
2018-04-02T18:51:45.014Z,68.93
2018-04-02T18:54:12.644Z,68.65
2018-04-02T18:56:40.708Z,68.69
2018-04-02T18:59:08.816Z,68.63
2018-04-02T19:01:36.592Z,68.65
2018-04-02T19:04:04.376Z,68.60
2018-04-02T19:06:32.506Z,68.73
2018-04-02T19:09:00.442Z,68.56
2018-04-02T19:11:28.884Z,68.62
2018-04-02T19:13:56.497Z,68.73
2018-04-02T19:16:24.172Z,68.83
2018-04-02T19:18:51.805Z,68.82
2018-04-02T19:21:19.574Z,69.01
2018-04-02T19:23:47.455Z,68.87
2018-04-02T19:26:15.186Z,69.16
2018-04-02T19:28:42.963Z,69.02
2018-04-02T19:31:10.878Z,68.96
2018-04-02T19:33:38.990Z,68.96
2018-04-02T19:36:06.841Z,69.10
2018-04-02T19:38:34.646Z,68.94
2018-04-02T19:41:03.341Z,69.09
2018-04-02T19:43:31.520Z,69.09
2018-04-02T19:45:59.162Z,68.80
2018-04-02T19:48:26.860Z,68.98
2018-04-02T19:50:54.719Z,68.89
2018-04-02T19:53:22.342Z,68.77
2018-04-02T19:55:49.970Z,68.96
2018-04-02T19:58:17.788Z,68.47
2018-04-02T20:00:45.965Z,68.55
2018-04-02T20:03:13.811Z,68.58
2018-04-02T20:05:41.506Z,67.49
2018-04-02T20:08:09.227Z,67.47
2018-04-02T20:10:36.840Z,67.92
2018-04-02T20:13:04.461Z,68.24
2018-04-02T20:15:32.157Z,68.25
2018-04-02T20:17:59.779Z,68.38
2018-04-02T20:20:27.450Z,68.62
2018-04-02T20:22:55.208Z,68.89
2018-04-02T20:25:22.852Z,69.26
2018-04-02T20:27:50.684Z,69.57
2018-04-02T20:30:18.421Z,70.02
2018-04-02T20:32:46.028Z,70.16
2018-04-02T20:35:13.667Z,70.79
2018-04-02T20:37:41.692Z,71.46
2018-04-02T20:40:09.294Z,72.53
2018-04-02T20:42:36.894Z,73.46
2018-04-02T20:45:04.551Z,74.90
2018-04-02T20:47:32.487Z,75.29
2018-04-02T20:50:01.231Z,76.29
2018-04-02T20:52:30.786Z,76.81
2018-04-02T20:55:00.479Z,77.07
2018-04-02T20:57:28.075Z,77.81
2018-04-02T20:59:56.067Z,78.52
2018-04-02T21:02:25.293Z,78.87
2018-04-02T21:04:53.283Z,79.60
2018-04-02T21:07:20.938Z,80.41
2018-04-02T21:09:48.515Z,80.64
2018-04-02T21:12:22.608Z,81.69
2018-04-02T21:14:50.495Z,82.26
2018-04-02T21:17:18.329Z,83.05
2018-04-02T21:19:46.006Z,83.42
2018-04-02T21:22:13.597Z,83.68
2018-04-02T21:24:41.630Z,84.16
2018-04-02T21:27:09.309Z,84.50
2018-04-02T21:29:36.900Z,84.71
2018-04-02T21:32:04.488Z,85.52
2018-04-02T21:34:32.097Z,85.87
2018-04-02T21:36:59.693Z,85.72
2018-04-02T21:39:27.344Z,85.87
2018-04-02T21:41:54.933Z,86.42
2018-04-02T21:44:22.516Z,86.96
2018-04-02T21:46:50.132Z,87.02
2018-04-02T21:49:18.067Z,87.47
2018-04-02T21:51:45.646Z,87.74
2018-04-02T21:54:13.667Z,87.79
2018-04-02T21:56:41.481Z,87.85
2018-04-02T21:59:09.131Z,88.20
2018-04-02T22:01:36.884Z,88.46
2018-04-02T22:04:04.479Z,88.67
2018-04-02T22:06:44.000Z,88.72
2018-04-02T22:09:11.682Z,88.94
2018-04-02T22:11:39.388Z,89.23
2018-04-02T22:14:07.093Z,89.33
2018-04-02T22:16:34.678Z,89.23
2018-04-02T22:19:02.300Z,89.53
2018-04-02T22:21:29.965Z,89.79
2018-04-02T22:23:57.581Z,89.63
2018-04-02T22:26:25.232Z,89.47
2018-04-02T22:28:52.823Z,89.77
2018-04-02T22:31:20.436Z,89.52
2018-04-02T22:33:48.061Z,89.53
2018-04-02T22:36:15.656Z,89.74
2018-04-02T22:38:43.221Z,89.86
2018-04-02T22:41:10.861Z,89.95
2018-04-02T22:43:38.465Z,89.79
2018-04-02T22:46:06.167Z,89.93
2018-04-02T22:48:33.963Z,89.94
2018-04-02T22:51:01.578Z,89.93
2018-04-02T22:53:29.277Z,89.92
2018-04-02T22:55:56.858Z,90.24
2018-04-02T22:58:24.664Z,90.30
2018-04-02T23:00:52.325Z,90.12
2018-04-02T23:03:19.975Z,90.33
2018-04-02T23:05:47.575Z,90.17
2018-04-02T23:08:15.192Z,90.12
2018-04-02T23:10:42.904Z,90.23
2018-04-02T23:13:10.476Z,90.21
2018-04-02T23:15:38.058Z,90.00
2018-04-02T23:18:05.884Z,90.06
2018-04-02T23:20:33.453Z,90.19
2018-04-02T23:23:01.500Z,90.09
2018-04-02T23:25:29.091Z,90.22
2018-04-02T23:27:56.676Z,90.23
2018-04-02T23:30:24.323Z,90.32
2018-04-02T23:32:51.902Z,90.47
2018-04-02T23:35:19.523Z,90.65
2018-04-02T23:37:47.500Z,90.76
2018-04-02T23:40:15.214Z,90.78
2018-04-02T23:42:43.132Z,90.84
2018-04-02T23:45:10.705Z,91.21
2018-04-02T23:47:38.320Z,91.26
2018-04-02T23:50:05.966Z,91.43
2018-04-02T23:52:33.545Z,91.47
2018-04-02T23:55:01.113Z,91.29
2018-04-02T23:57:28.970Z,91.23
2018-04-02T23:59:56.893Z,91.41
